Portland Troutdale Airport
KTTD : rendu visible

Aérodrome :











RETROUVEZ-NOUS SUR...

 
LOGIN :

S'inscrire | Disclaimer

   EN    FR    IT 

 









Légende :    VFR   VFR Marginal   IFR   IFR Intensif   IFR Très Intensif
Visi : 
Plafond : 
>= 8 km
>= 3000ft
5 à 8 km
1000 à 3000 ft
1500m à 5 km
500 à 1000 ft
800 à 1500m
200 à 500 ft
< 800m
< 200 ft
Symboles :   Orages  Brouillard  Fortes neiges  Fortes précipitations  Vent > 20 kt






- Altitude de l'aérodrome : 39 ft


KTTD - Portland Troutdale

DERNIER METAR :
  • 141253Z AUTO 09017G23KT 10SM CLR 09/03 A3002 RMK AO2 PK WND 09028/1226 SLP166 T00940033

METARs EXPIRÉS :
  • 141153Z AUTO 09020G26KT 10SM CLR 09/03 A3002 RMK AO2 PK WND 09026/1145 SLP166 T00940033 10094 20089 58002
  • 141053Z AUTO 09021G30KT 10SM CLR 09/03 A3003 RMK AO2 PK WND 09030/1050 SLP168 T00940033

TAF KTTD
Valide du 14 à 12h jusqu'au 15 à 12h UTC


141134Z 1412/1512 09021G30KT P6SM BKN200
FM142000 09014G25KT P6SM BKN120
FM150200 09014KT P6SM BKN120
FM150900 09010KT P6SM OVC050



MET'MAP, la Météo Aéronautique d'un coup d'oeil ! - Copyright ORBIFLY Décembre 2007 - Disclaimer

ORBIFLY MET'MAP TEAM :

Programmation & Développement : Alexandra Zaïnal
Conception & Développement : Baudouin d'Aumeries
Co-Programmation & Développement : Marc-Olivier Méhu
Soutien technique & logistique : Manuel Goepfert

Contact : metmap@orbifly.com




SOURCES & CREDITS :

   NOAA       Earth
Advisory